sensor_id;sensor_type;location;lat;lon;timestamp;P1;durP1;ratioP1;P2;durP2;ratioP2
63930;SDS011;50111;48.114;-2.066;2022-08-03T00:01:58;4.03;;;2.20;;
63930;SDS011;50111;48.114;-2.066;2022-08-03T00:04:25;5.03;;;2.80;;
63930;SDS011;50111;48.114;-2.066;2022-08-03T00:06:51;4.90;;;2.35;;
63930;SDS011;50111;48.114;-2.066;2022-08-03T00:09:17;6.15;;;2.47;;
63930;SDS011;50111;48.114;-2.066;2022-08-03T00:11:43;5.40;;;2.38;;
63930;SDS011;50111;48.114;-2.066;2022-08-03T00:14:09;5.97;;;2.75;;
63930;SDS011;50111;48.114;-2.066;2022-08-03T00:16:35;7.82;;;3.25;;
63930;SDS011;50111;48.114;-2.066;2022-08-03T00:19:01;6.13;;;2.72;;
63930;SDS011;50111;48.114;-2.066;2022-08-03T00:21:28;6.55;;;2.67;;
63930;SDS011;50111;48.114;-2.066;2022-08-03T00:23:54;7.18;;;3.30;;
63930;SDS011;50111;48.114;-2.066;2022-08-03T00:26:20;5.38;;;2.83;;
63930;SDS011;50111;48.114;-2.066;2022-08-03T00:28:47;4.97;;;2.40;;
63930;SDS011;50111;48.114;-2.066;2022-08-03T00:31:13;6.57;;;3.03;;
63930;SDS011;50111;48.114;-2.066;2022-08-03T00:33:39;6.00;;;3.20;;
63930;SDS011;50111;48.114;-2.066;2022-08-03T00:36:05;7.03;;;2.75;;
63930;SDS011;50111;48.114;-2.066;2022-08-03T00:38:31;7.18;;;2.70;;
63930;SDS011;50111;48.114;-2.066;2022-08-03T00:40:57;5.85;;;3.33;;
63930;SDS011;50111;48.114;-2.066;2022-08-03T00:43:24;8.25;;;3.80;;
63930;SDS011;50111;48.114;-2.066;2022-08-03T00:45:51;4.88;;;3.15;;
63930;SDS011;50111;48.114;-2.066;2022-08-03T00:48:18;8.38;;;3.67;;
63930;SDS011;50111;48.114;-2.066;2022-08-03T00:50:45;5.28;;;3.47;;
63930;SDS011;50111;48.114;-2.066;2022-08-03T00:53:12;6.93;;;3.75;;
63930;SDS011;50111;48.114;-2.066;2022-08-03T00:55:41;7.47;;;3.88;;
63930;SDS011;50111;48.114;-2.066;2022-08-03T00:58:08;6.23;;;3.80;;
63930;SDS011;50111;48.114;-2.066;2022-08-03T01:00:35;7.93;;;3.50;;
63930;SDS011;50111;48.114;-2.066;2022-08-03T01:03:03;7.80;;;3.42;;
63930;SDS011;50111;48.114;-2.066;2022-08-03T01:05:29;9.93;;;3.92;;
63930;SDS011;50111;48.114;-2.066;2022-08-03T01:10:25;8.10;;;3.83;;
63930;SDS011;50111;48.114;-2.066;2022-08-03T01:15:23;7.20;;;3.65;;
63930;SDS011;50111;48.114;-2.066;2022-08-03T01:17:53;7.18;;;3.40;;
63930;SDS011;50111;48.114;-2.066;2022-08-03T01:20:21;9.75;;;3.88;;
63930;SDS011;50111;48.114;-2.066;2022-08-03T01:23:02;9.30;;;4.35;;
63930;SDS011;50111;48.114;-2.066;2022-08-03T01:25:48;7.47;;;3.80;;
63930;SDS011;50111;48.114;-2.066;2022-08-03T01:28:38;13.43;;;4.30;;
63930;SDS011;50111;48.114;-2.066;2022-08-03T01:31:08;8.45;;;4.60;;
63930;SDS011;50111;48.114;-2.066;2022-08-03T01:33:36;12.98;;;4.82;;
63930;SDS011;50111;48.114;-2.066;2022-08-03T01:36:04;12.25;;;4.65;;
63930;SDS011;50111;48.114;-2.066;2022-08-03T01:38:32;9.35;;;4.22;;
63930;SDS011;50111;48.114;-2.066;2022-08-03T01:41:03;8.52;;;4.72;;
63930;SDS011;50111;48.114;-2.066;2022-08-03T01:43:30;8.48;;;4.13;;
63930;SDS011;50111;48.114;-2.066;2022-08-03T01:45:56;11.20;;;4.97;;
63930;SDS011;50111;48.114;-2.066;2022-08-03T01:48:22;8.32;;;4.25;;
63930;SDS011;50111;48.114;-2.066;2022-08-03T01:50:49;10.55;;;5.13;;
63930;SDS011;50111;48.114;-2.066;2022-08-03T01:53:16;14.50;;;4.75;;
63930;SDS011;50111;48.114;-2.066;2022-08-03T01:55:43;11.52;;;4.32;;
63930;SDS011;50111;48.114;-2.066;2022-08-03T01:58:10;10.75;;;5.13;;
63930;SDS011;50111;48.114;-2.066;2022-08-03T02:00:38;10.38;;;4.40;;
63930;SDS011;50111;48.114;-2.066;2022-08-03T02:03:05;12.32;;;4.40;;
63930;SDS011;50111;48.114;-2.066;2022-08-03T02:05:31;9.40;;;4.38;;
63930;SDS011;50111;48.114;-2.066;2022-08-03T02:07:59;9.93;;;4.28;;
63930;SDS011;50111;48.114;-2.066;2022-08-03T02:10:25;8.23;;;4.10;;
63930;SDS011;50111;48.114;-2.066;2022-08-03T02:12:51;8.20;;;3.63;;
63930;SDS011;50111;48.114;-2.066;2022-08-03T02:15:18;7.47;;;2.80;;
63930;SDS011;50111;48.114;-2.066;2022-08-03T02:17:45;10.77;;;3.80;;
63930;SDS011;50111;48.114;-2.066;2022-08-03T02:20:12;10.38;;;3.42;;
63930;SDS011;50111;48.114;-2.066;2022-08-03T02:22:38;8.88;;;2.67;;
63930;SDS011;50111;48.114;-2.066;2022-08-03T02:25:06;7.95;;;2.90;;
63930;SDS011;50111;48.114;-2.066;2022-08-03T02:27:32;10.07;;;2.90;;
63930;SDS011;50111;48.114;-2.066;2022-08-03T02:30:03;6.80;;;2.45;;
63930;SDS011;50111;48.114;-2.066;2022-08-03T02:32:31;12.95;;;2.97;;
63930;SDS011;50111;48.114;-2.066;2022-08-03T02:34:58;6.68;;;2.35;;
63930;SDS011;50111;48.114;-2.066;2022-08-03T02:37:26;4.13;;;2.33;;
63930;SDS011;50111;48.114;-2.066;2022-08-03T02:40:01;11.52;;;2.65;;
63930;SDS011;50111;48.114;-2.066;2022-08-03T02:42:28;5.93;;;2.22;;
63930;SDS011;50111;48.114;-2.066;2022-08-03T02:44:55;9.05;;;2.85;;
63930;SDS011;50111;48.114;-2.066;2022-08-03T02:47:22;7.13;;;2.40;;
63930;SDS011;50111;48.114;-2.066;2022-08-03T02:49:48;7.15;;;2.20;;
63930;SDS011;50111;48.114;-2.066;2022-08-03T02:52:15;7.38;;;2.50;;
63930;SDS011;50111;48.114;-2.066;2022-08-03T02:54:42;8.50;;;2.17;;
63930;SDS011;50111;48.114;-2.066;2022-08-03T02:57:09;8.00;;;1.95;;
63930;SDS011;50111;48.114;-2.066;2022-08-03T02:59:36;6.57;;;2.28;;
63930;SDS011;50111;48.114;-2.066;2022-08-03T03:02:02;6.68;;;2.40;;
63930;SDS011;50111;48.114;-2.066;2022-08-03T03:04:29;6.05;;;2.45;;
63930;SDS011;50111;48.114;-2.066;2022-08-03T03:06:55;5.70;;;2.30;;
63930;SDS011;50111;48.114;-2.066;2022-08-03T03:09:22;4.95;;;2.10;;
63930;SDS011;50111;48.114;-2.066;2022-08-03T03:11:48;5.28;;;2.10;;
63930;SDS011;50111;48.114;-2.066;2022-08-03T03:14:15;6.05;;;2.60;;
63930;SDS011;50111;48.114;-2.066;2022-08-03T03:16:42;7.70;;;2.72;;
63930;SDS011;50111;48.114;-2.066;2022-08-03T03:19:09;10.13;;;2.95;;
63930;SDS011;50111;48.114;-2.066;2022-08-03T03:21:36;8.50;;;2.78;;
63930;SDS011;50111;48.114;-2.066;2022-08-03T03:24:02;7.18;;;3.00;;
63930;SDS011;50111;48.114;-2.066;2022-08-03T03:26:29;7.90;;;3.00;;
63930;SDS011;50111;48.114;-2.066;2022-08-03T03:28:55;8.80;;;2.72;;
63930;SDS011;50111;48.114;-2.066;2022-08-03T03:31:21;6.53;;;3.13;;
63930;SDS011;50111;48.114;-2.066;2022-08-03T03:33:47;8.43;;;3.00;;
63930;SDS011;50111;48.114;-2.066;2022-08-03T03:36:13;7.65;;;3.20;;
63930;SDS011;50111;48.114;-2.066;2022-08-03T03:38:39;8.07;;;2.90;;
63930;SDS011;50111;48.114;-2.066;2022-08-03T03:41:05;7.85;;;3.10;;
63930;SDS011;50111;48.114;-2.066;2022-08-03T03:43:31;7.20;;;3.22;;
63930;SDS011;50111;48.114;-2.066;2022-08-03T03:45:58;5.30;;;2.60;;
63930;SDS011;50111;48.114;-2.066;2022-08-03T03:48:25;8.10;;;3.40;;
63930;SDS011;50111;48.114;-2.066;2022-08-03T03:50:51;8.90;;;2.75;;
63930;SDS011;50111;48.114;-2.066;2022-08-03T03:53:17;12.13;;;2.78;;
63930;SDS011;50111;48.114;-2.066;2022-08-03T03:55:43;6.10;;;2.83;;
63930;SDS011;50111;48.114;-2.066;2022-08-03T03:58:09;8.82;;;2.92;;
63930;SDS011;50111;48.114;-2.066;2022-08-03T04:00:35;5.45;;;2.92;;
63930;SDS011;50111;48.114;-2.066;2022-08-03T04:03:01;7.07;;;2.45;;
63930;SDS011;50111;48.114;-2.066;2022-08-03T04:05:27;6.00;;;2.83;;
63930;SDS011;50111;48.114;-2.066;2022-08-03T04:08:13;6.03;;;2.28;;
63930;SDS011;50111;48.114;-2.066;2022-08-03T04:16:12;5.73;;;2.30;;
63930;SDS011;50111;48.114;-2.066;2022-08-03T04:18:40;6.15;;;2.55;;
63930;SDS011;50111;48.114;-2.066;2022-08-03T04:21:08;7.07;;;3.00;;
63930;SDS011;50111;48.114;-2.066;2022-08-03T04:23:34;8.35;;;3.33;;
63930;SDS011;50111;48.114;-2.066;2022-08-03T04:26:02;5.18;;;2.08;;
63930;SDS011;50111;48.114;-2.066;2022-08-03T04:28:29;4.18;;;2.17;;
63930;SDS011;50111;48.114;-2.066;2022-08-03T04:30:56;5.00;;;1.95;;
63930;SDS011;50111;48.114;-2.066;2022-08-03T04:33:22;3.92;;;2.10;;
63930;SDS011;50111;48.114;-2.066;2022-08-03T04:35:49;4.40;;;1.95;;
63930;SDS011;50111;48.114;-2.066;2022-08-03T04:38:17;5.30;;;2.00;;
63930;SDS011;50111;48.114;-2.066;2022-08-03T04:40:44;5.30;;;2.33;;
63930;SDS011;50111;48.114;-2.066;2022-08-03T04:43:11;5.60;;;2.20;;
63930;SDS011;50111;48.114;-2.066;2022-08-03T04:45:38;4.50;;;2.38;;
63930;SDS011;50111;48.114;-2.066;2022-08-03T04:48:04;4.35;;;1.75;;
63930;SDS011;50111;48.114;-2.066;2022-08-03T04:50:30;6.07;;;2.40;;
63930;SDS011;50111;48.114;-2.066;2022-08-03T04:52:56;5.68;;;2.47;;
63930;SDS011;50111;48.114;-2.066;2022-08-03T04:55:29;6.10;;;2.10;;
63930;SDS011;50111;48.114;-2.066;2022-08-03T04:57:56;4.88;;;2.10;;
63930;SDS011;50111;48.114;-2.066;2022-08-03T05:00:22;3.60;;;1.73;;
63930;SDS011;50111;48.114;-2.066;2022-08-03T05:02:48;6.45;;;2.42;;
63930;SDS011;50111;48.114;-2.066;2022-08-03T05:05:15;4.15;;;2.17;;
63930;SDS011;50111;48.114;-2.066;2022-08-03T05:07:41;3.80;;;2.03;;
63930;SDS011;50111;48.114;-2.066;2022-08-03T05:10:09;3.35;;;1.92;;
63930;SDS011;50111;48.114;-2.066;2022-08-03T05:12:35;3.10;;;1.48;;
63930;SDS011;50111;48.114;-2.066;2022-08-03T05:15:01;2.92;;;1.10;;
63930;SDS011;50111;48.114;-2.066;2022-08-03T05:17:27;4.88;;;1.40;;
63930;SDS011;50111;48.114;-2.066;2022-08-03T05:19:54;3.47;;;1.08;;
63930;SDS011;50111;48.114;-2.066;2022-08-03T05:22:20;1.08;;;0.98;;
63930;SDS011;50111;48.114;-2.066;2022-08-03T05:24:46;2.15;;;0.70;;
63930;SDS011;50111;48.114;-2.066;2022-08-03T05:27:12;0.82;;;0.60;;
63930;SDS011;50111;48.114;-2.066;2022-08-03T05:29:43;1.58;;;0.93;;
63930;SDS011;50111;48.114;-2.066;2022-08-03T05:32:09;1.30;;;0.80;;
63930;SDS011;50111;48.114;-2.066;2022-08-03T05:34:35;2.28;;;1.10;;
63930;SDS011;50111;48.114;-2.066;2022-08-03T05:37:01;3.05;;;1.13;;
63930;SDS011;50111;48.114;-2.066;2022-08-03T05:39:27;4.50;;;1.50;;
63930;SDS011;50111;48.114;-2.066;2022-08-03T05:41:53;4.45;;;1.50;;
63930;SDS011;50111;48.114;-2.066;2022-08-03T05:44:19;5.72;;;1.30;;
63930;SDS011;50111;48.114;-2.066;2022-08-03T05:46:46;4.18;;;1.40;;
63930;SDS011;50111;48.114;-2.066;2022-08-03T05:49:12;3.22;;;1.10;;
63930;SDS011;50111;48.114;-2.066;2022-08-03T05:51:38;3.05;;;1.20;;
63930;SDS011;50111;48.114;-2.066;2022-08-03T05:54:04;4.85;;;1.13;;
63930;SDS011;50111;48.114;-2.066;2022-08-03T05:56:30;3.47;;;1.17;;
63930;SDS011;50111;48.114;-2.066;2022-08-03T05:58:56;3.67;;;0.98;;
63930;SDS011;50111;48.114;-2.066;2022-08-03T06:01:22;4.50;;;1.05;;
63930;SDS011;50111;48.114;-2.066;2022-08-03T06:03:48;4.38;;;0.75;;
63930;SDS011;50111;48.114;-2.066;2022-08-03T06:06:15;3.20;;;1.05;;
63930;SDS011;50111;48.114;-2.066;2022-08-03T06:08:42;1.00;;;0.90;;
63930;SDS011;50111;48.114;-2.066;2022-08-03T06:11:08;2.97;;;1.00;;
63930;SDS011;50111;48.114;-2.066;2022-08-03T06:13:34;2.58;;;1.17;;
63930;SDS011;50111;48.114;-2.066;2022-08-03T06:16:00;1.85;;;1.15;;
63930;SDS011;50111;48.114;-2.066;2022-08-03T06:18:26;1.90;;;1.17;;
63930;SDS011;50111;48.114;-2.066;2022-08-03T06:20:52;0.80;;;0.80;;
63930;SDS011;50111;48.114;-2.066;2022-08-03T06:23:18;3.53;;;0.85;;
63930;SDS011;50111;48.114;-2.066;2022-08-03T06:25:45;3.03;;;1.30;;
63930;SDS011;50111;48.114;-2.066;2022-08-03T06:28:11;2.05;;;1.30;;
63930;SDS011;50111;48.114;-2.066;2022-08-03T06:30:42;1.77;;;1.00;;
63930;SDS011;50111;48.114;-2.066;2022-08-03T06:33:08;1.73;;;1.02;;
63930;SDS011;50111;48.114;-2.066;2022-08-03T06:35:34;2.13;;;1.10;;
63930;SDS011;50111;48.114;-2.066;2022-08-03T06:38:00;1.88;;;0.93;;
63930;SDS011;50111;48.114;-2.066;2022-08-03T06:40:26;1.05;;;0.88;;
63930;SDS011;50111;48.114;-2.066;2022-08-03T06:42:57;1.05;;;0.65;;
63930;SDS011;50111;48.114;-2.066;2022-08-03T06:45:23;2.97;;;0.98;;
63930;SDS011;50111;48.114;-2.066;2022-08-03T06:47:58;1.02;;;0.88;;
63930;SDS011;50111;48.114;-2.066;2022-08-03T06:50:24;2.92;;;0.98;;
63930;SDS011;50111;48.114;-2.066;2022-08-03T06:52:50;4.30;;;1.45;;
63930;SDS011;50111;48.114;-2.066;2022-08-03T06:55:16;1.85;;;1.00;;
63930;SDS011;50111;48.114;-2.066;2022-08-03T06:57:42;5.45;;;1.00;;
63930;SDS011;50111;48.114;-2.066;2022-08-03T07:00:09;4.40;;;1.10;;
63930;SDS011;50111;48.114;-2.066;2022-08-03T07:02:35;4.32;;;1.20;;
63930;SDS011;50111;48.114;-2.066;2022-08-03T07:05:02;1.92;;;0.90;;
63930;SDS011;50111;48.114;-2.066;2022-08-03T07:07:28;0.90;;;0.90;;
63930;SDS011;50111;48.114;-2.066;2022-08-03T07:09:54;3.42;;;0.90;;
63930;SDS011;50111;48.114;-2.066;2022-08-03T07:12:20;2.63;;;1.05;;
63930;SDS011;50111;48.114;-2.066;2022-08-03T07:14:46;2.03;;;1.30;;
63930;SDS011;50111;48.114;-2.066;2022-08-03T07:17:12;6.53;;;1.30;;
63930;SDS011;50111;48.114;-2.066;2022-08-03T07:19:38;3.63;;;1.30;;
63930;SDS011;50111;48.114;-2.066;2022-08-03T07:22:04;7.22;;;1.42;;
63930;SDS011;50111;48.114;-2.066;2022-08-03T07:24:30;4.88;;;1.65;;
63930;SDS011;50111;48.114;-2.066;2022-08-03T07:26:56;3.85;;;1.67;;
63930;SDS011;50111;48.114;-2.066;2022-08-03T07:29:22;3.78;;;1.30;;
63930;SDS011;50111;48.114;-2.066;2022-08-03T07:31:48;2.25;;;0.90;;
63930;SDS011;50111;48.114;-2.066;2022-08-03T07:34:15;0.90;;;0.65;;
63930;SDS011;50111;48.114;-2.066;2022-08-03T07:36:41;2.05;;;0.75;;
63930;SDS011;50111;48.114;-2.066;2022-08-03T07:39:07;1.00;;;0.82;;
63930;SDS011;50111;48.114;-2.066;2022-08-03T07:41:33;1.60;;;1.02;;
63930;SDS011;50111;48.114;-2.066;2022-08-03T07:43:59;2.45;;;1.10;;
63930;SDS011;50111;48.114;-2.066;2022-08-03T07:46:25;1.95;;;1.20;;
63930;SDS011;50111;48.114;-2.066;2022-08-03T07:48:51;1.48;;;1.15;;
63930;SDS011;50111;48.114;-2.066;2022-08-03T07:51:17;1.35;;;1.25;;
63930;SDS011;50111;48.114;-2.066;2022-08-03T07:53:43;1.40;;;1.20;;
63930;SDS011;50111;48.114;-2.066;2022-08-03T07:56:09;2.83;;;1.30;;
63930;SDS011;50111;48.114;-2.066;2022-08-03T07:58:35;2.00;;;1.30;;
63930;SDS011;50111;48.114;-2.066;2022-08-03T08:01:01;2.00;;;1.60;;
63930;SDS011;50111;48.114;-2.066;2022-08-03T08:03:27;1.80;;;1.20;;
63930;SDS011;50111;48.114;-2.066;2022-08-03T08:05:53;3.35;;;1.20;;
63930;SDS011;50111;48.114;-2.066;2022-08-03T08:08:19;1.42;;;1.30;;
63930;SDS011;50111;48.114;-2.066;2022-08-03T08:10:46;2.97;;;1.23;;
63930;SDS011;50111;48.114;-2.066;2022-08-03T08:13:12;2.72;;;1.15;;
63930;SDS011;50111;48.114;-2.066;2022-08-03T08:15:38;2.72;;;1.30;;
63930;SDS011;50111;48.114;-2.066;2022-08-03T08:18:04;3.40;;;1.35;;
63930;SDS011;50111;48.114;-2.066;2022-08-03T08:20:31;1.70;;;1.50;;
63930;SDS011;50111;48.114;-2.066;2022-08-03T08:23:02;2.45;;;1.55;;
63930;SDS011;50111;48.114;-2.066;2022-08-03T08:25:28;1.35;;;1.25;;
63930;SDS011;50111;48.114;-2.066;2022-08-03T08:27:55;3.30;;;1.30;;
63930;SDS011;50111;48.114;-2.066;2022-08-03T08:30:21;1.80;;;1.38;;
63930;SDS011;50111;48.114;-2.066;2022-08-03T08:32:48;2.80;;;1.15;;
63930;SDS011;50111;48.114;-2.066;2022-08-03T08:35:14;1.88;;;1.50;;
63930;SDS011;50111;48.114;-2.066;2022-08-03T08:37:41;2.65;;;1.30;;
63930;SDS011;50111;48.114;-2.066;2022-08-03T08:40:07;1.88;;;1.40;;
63930;SDS011;50111;48.114;-2.066;2022-08-03T08:42:35;1.60;;;1.50;;
63930;SDS011;50111;48.114;-2.066;2022-08-03T08:45:03;1.48;;;1.38;;
63930;SDS011;50111;48.114;-2.066;2022-08-03T08:47:30;2.45;;;1.20;;
63930;SDS011;50111;48.114;-2.066;2022-08-03T08:49:57;2.97;;;1.77;;
63930;SDS011;50111;48.114;-2.066;2022-08-03T08:52:24;1.92;;;1.67;;
63930;SDS011;50111;48.114;-2.066;2022-08-03T08:54:58;3.78;;;1.40;;
63930;SDS011;50111;48.114;-2.066;2022-08-03T08:57:28;1.77;;;1.27;;
63930;SDS011;50111;48.114;-2.066;2022-08-03T08:59:55;3.88;;;1.27;;
63930;SDS011;50111;48.114;-2.066;2022-08-03T09:02:25;2.88;;;1.40;;
63930;SDS011;50111;48.114;-2.066;2022-08-03T09:04:53;1.98;;;1.35;;
63930;SDS011;50111;48.114;-2.066;2022-08-03T09:07:20;1.10;;;1.00;;
63930;SDS011;50111;48.114;-2.066;2022-08-03T09:09:46;1.90;;;1.40;;
63930;SDS011;50111;48.114;-2.066;2022-08-03T09:12:12;2.30;;;1.40;;
63930;SDS011;50111;48.114;-2.066;2022-08-03T09:14:38;2.70;;;1.30;;
63930;SDS011;50111;48.114;-2.066;2022-08-03T09:17:05;3.83;;;1.60;;
63930;SDS011;50111;48.114;-2.066;2022-08-03T09:19:32;5.93;;;1.67;;
63930;SDS011;50111;48.114;-2.066;2022-08-03T09:22:12;3.40;;;1.75;;
63930;SDS011;50111;48.114;-2.066;2022-08-03T09:24:55;1.95;;;1.50;;
63930;SDS011;50111;48.114;-2.066;2022-08-03T09:27:22;2.05;;;1.88;;
63930;SDS011;50111;48.114;-2.066;2022-08-03T09:29:51;2.50;;;1.50;;
63930;SDS011;50111;48.114;-2.066;2022-08-03T09:34:47;1.60;;;1.40;;
63930;SDS011;50111;48.114;-2.066;2022-08-03T09:37:17;1.90;;;1.70;;
63930;SDS011;50111;48.114;-2.066;2022-08-03T09:39:44;2.58;;;2.13;;
63930;SDS011;50111;48.114;-2.066;2022-08-03T09:42:11;2.28;;;1.80;;
63930;SDS011;50111;48.114;-2.066;2022-08-03T09:44:38;2.88;;;1.92;;
63930;SDS011;50111;48.114;-2.066;2022-08-03T09:47:06;3.35;;;1.83;;
63930;SDS011;50111;48.114;-2.066;2022-08-03T09:49:34;6.18;;;2.00;;
63930;SDS011;50111;48.114;-2.066;2022-08-03T09:52:00;3.83;;;2.15;;
63930;SDS011;50111;48.114;-2.066;2022-08-03T09:54:28;3.38;;;1.90;;
63930;SDS011;50111;48.114;-2.066;2022-08-03T09:56:54;3.28;;;1.60;;
63930;SDS011;50111;48.114;-2.066;2022-08-03T09:59:25;2.22;;;1.83;;
63930;SDS011;50111;48.114;-2.066;2022-08-03T10:01:52;2.20;;;1.67;;
63930;SDS011;50111;48.114;-2.066;2022-08-03T10:04:18;2.97;;;1.60;;
63930;SDS011;50111;48.114;-2.066;2022-08-03T10:06:45;3.75;;;1.80;;
63930;SDS011;50111;48.114;-2.066;2022-08-03T10:09:12;2.15;;;1.60;;
63930;SDS011;50111;48.114;-2.066;2022-08-03T10:11:39;3.80;;;1.40;;
63930;SDS011;50111;48.114;-2.066;2022-08-03T10:14:06;4.68;;;2.30;;
63930;SDS011;50111;48.114;-2.066;2022-08-03T10:16:34;2.67;;;2.15;;
63930;SDS011;50111;48.114;-2.066;2022-08-03T10:19:01;3.53;;;1.85;;
63930;SDS011;50111;48.114;-2.066;2022-08-03T10:21:28;2.53;;;1.77;;
63930;SDS011;50111;48.114;-2.066;2022-08-03T10:23:57;3.40;;;1.90;;
63930;SDS011;50111;48.114;-2.066;2022-08-03T10:26:24;4.13;;;2.03;;
63930;SDS011;50111;48.114;-2.066;2022-08-03T10:28:52;3.53;;;1.70;;
63930;SDS011;50111;48.114;-2.066;2022-08-03T10:31:19;3.13;;;1.73;;
63930;SDS011;50111;48.114;-2.066;2022-08-03T10:33:48;2.75;;;1.80;;
63930;SDS011;50111;48.114;-2.066;2022-08-03T10:36:14;2.67;;;1.90;;
63930;SDS011;50111;48.114;-2.066;2022-08-03T10:38:42;4.20;;;2.10;;
63930;SDS011;50111;48.114;-2.066;2022-08-03T10:41:16;4.20;;;2.13;;
63930;SDS011;50111;48.114;-2.066;2022-08-03T10:43:49;3.90;;;1.88;;
63930;SDS011;50111;48.114;-2.066;2022-08-03T10:46:17;3.38;;;2.40;;
63930;SDS011;50111;48.114;-2.066;2022-08-03T10:48:44;6.30;;;2.50;;
63930;SDS011;50111;48.114;-2.066;2022-08-03T10:51:11;6.18;;;2.10;;
63930;SDS011;50111;48.114;-2.066;2022-08-03T10:53:39;4.60;;;2.58;;
63930;SDS011;50111;48.114;-2.066;2022-08-03T10:56:06;4.13;;;2.33;;
63930;SDS011;50111;48.114;-2.066;2022-08-03T10:59:11;5.88;;;1.98;;
63930;SDS011;50111;48.114;-2.066;2022-08-03T11:01:53;6.38;;;2.30;;
63930;SDS011;50111;48.114;-2.066;2022-08-03T11:04:20;3.67;;;1.95;;
63930;SDS011;50111;48.114;-2.066;2022-08-03T11:06:54;3.42;;;2.00;;
63930;SDS011;50111;48.114;-2.066;2022-08-03T11:09:40;2.88;;;2.10;;
63930;SDS011;50111;48.114;-2.066;2022-08-03T11:12:23;6.50;;;2.42;;
63930;SDS011;50111;48.114;-2.066;2022-08-03T11:14:50;4.95;;;1.95;;
63930;SDS011;50111;48.114;-2.066;2022-08-03T11:17:17;3.17;;;2.00;;
63930;SDS011;50111;48.114;-2.066;2022-08-03T11:19:44;3.53;;;1.80;;
63930;SDS011;50111;48.114;-2.066;2022-08-03T11:22:10;3.97;;;1.67;;
63930;SDS011;50111;48.114;-2.066;2022-08-03T11:29:55;3.35;;;1.98;;
63930;SDS011;50111;48.114;-2.066;2022-08-03T11:35:07;3.45;;;1.95;;
63930;SDS011;50111;48.114;-2.066;2022-08-03T11:37:34;4.93;;;2.00;;
63930;SDS011;50111;48.114;-2.066;2022-08-03T11:40:01;2.47;;;1.63;;
63930;SDS011;50111;48.114;-2.066;2022-08-03T11:44:56;2.85;;;1.52;;
63930;SDS011;50111;48.114;-2.066;2022-08-03T11:49:50;2.85;;;1.63;;
63930;SDS011;50111;48.114;-2.066;2022-08-03T11:52:16;4.90;;;2.10;;
63930;SDS011;50111;48.114;-2.066;2022-08-03T11:54:43;3.95;;;1.67;;
63930;SDS011;50111;48.114;-2.066;2022-08-03T11:57:09;5.18;;;1.50;;
63930;SDS011;50111;48.114;-2.066;2022-08-03T11:59:36;3.60;;;1.65;;
63930;SDS011;50111;48.114;-2.066;2022-08-03T12:02:08;4.15;;;1.88;;
63930;SDS011;50111;48.114;-2.066;2022-08-03T12:04:54;4.57;;;1.55;;
63930;SDS011;50111;48.114;-2.066;2022-08-03T12:07:28;2.17;;;1.35;;
63930;SDS011;50111;48.114;-2.066;2022-08-03T12:10:10;3.90;;;1.90;;
63930;SDS011;50111;48.114;-2.066;2022-08-03T12:12:36;2.65;;;1.50;;
63930;SDS011;50111;48.114;-2.066;2022-08-03T12:15:03;4.68;;;1.83;;
63930;SDS011;50111;48.114;-2.066;2022-08-03T12:17:36;3.50;;;1.45;;
63930;SDS011;50111;48.114;-2.066;2022-08-03T12:20:03;2.28;;;1.60;;
63930;SDS011;50111;48.114;-2.066;2022-08-03T12:22:30;3.05;;;1.67;;
63930;SDS011;50111;48.114;-2.066;2022-08-03T12:24:56;2.75;;;1.60;;
63930;SDS011;50111;48.114;-2.066;2022-08-03T12:27:23;3.95;;;1.60;;
63930;SDS011;50111;48.114;-2.066;2022-08-03T12:29:50;2.25;;;1.50;;
63930;SDS011;50111;48.114;-2.066;2022-08-03T12:32:16;3.33;;;1.70;;
63930;SDS011;50111;48.114;-2.066;2022-08-03T12:34:46;4.88;;;1.70;;
63930;SDS011;50111;48.114;-2.066;2022-08-03T12:37:12;3.70;;;1.70;;
63930;SDS011;50111;48.114;-2.066;2022-08-03T12:39:38;4.43;;;1.40;;
63930;SDS011;50111;48.114;-2.066;2022-08-03T12:42:05;5.35;;;1.92;;
63930;SDS011;50111;48.114;-2.066;2022-08-03T12:44:31;4.15;;;1.65;;
63930;SDS011;50111;48.114;-2.066;2022-08-03T12:46:58;3.85;;;1.55;;
63930;SDS011;50111;48.114;-2.066;2022-08-03T12:49:25;2.58;;;1.50;;
63930;SDS011;50111;48.114;-2.066;2022-08-03T12:56:56;3.08;;;1.50;;
63930;SDS011;50111;48.114;-2.066;2022-08-03T12:59:22;3.33;;;1.65;;
63930;SDS011;50111;48.114;-2.066;2022-08-03T13:01:49;4.15;;;1.88;;
63930;SDS011;50111;48.114;-2.066;2022-08-03T13:04:24;1.90;;;1.42;;
63930;SDS011;50111;48.114;-2.066;2022-08-03T13:07:00;4.65;;;1.75;;
63930;SDS011;50111;48.114;-2.066;2022-08-03T13:09:27;2.80;;;1.35;;
63930;SDS011;50111;48.114;-2.066;2022-08-03T13:12:03;2.13;;;1.30;;
63930;SDS011;50111;48.114;-2.066;2022-08-03T13:14:29;2.72;;;1.70;;
63930;SDS011;50111;48.114;-2.066;2022-08-03T13:16:55;4.22;;;1.65;;
63930;SDS011;50111;48.114;-2.066;2022-08-03T13:19:21;5.75;;;1.75;;
63930;SDS011;50111;48.114;-2.066;2022-08-03T13:21:47;5.00;;;1.50;;
63930;SDS011;50111;48.114;-2.066;2022-08-03T13:24:14;4.18;;;1.60;;
63930;SDS011;50111;48.114;-2.066;2022-08-03T13:26:40;3.65;;;1.75;;
63930;SDS011;50111;48.114;-2.066;2022-08-03T13:29:06;3.97;;;1.88;;
63930;SDS011;50111;48.114;-2.066;2022-08-03T13:31:32;2.60;;;1.58;;
63930;SDS011;50111;48.114;-2.066;2022-08-03T13:33:58;2.40;;;1.63;;
63930;SDS011;50111;48.114;-2.066;2022-08-03T13:36:24;5.60;;;1.95;;
63930;SDS011;50111;48.114;-2.066;2022-08-03T13:38:50;3.55;;;1.42;;
63930;SDS011;50111;48.114;-2.066;2022-08-03T13:41:16;1.98;;;1.65;;
63930;SDS011;50111;48.114;-2.066;2022-08-03T13:43:42;2.70;;;1.60;;
63930;SDS011;50111;48.114;-2.066;2022-08-03T13:46:08;3.65;;;1.70;;
63930;SDS011;50111;48.114;-2.066;2022-08-03T13:48:34;4.95;;;1.80;;
63930;SDS011;50111;48.114;-2.066;2022-08-03T13:51:00;5.00;;;1.92;;
63930;SDS011;50111;48.114;-2.066;2022-08-03T13:53:26;1.63;;;1.45;;
63930;SDS011;50111;48.114;-2.066;2022-08-03T13:55:52;3.78;;;1.52;;
63930;SDS011;50111;48.114;-2.066;2022-08-03T13:58:18;2.83;;;1.60;;
63930;SDS011;50111;48.114;-2.066;2022-08-03T14:00:44;3.40;;;1.52;;
63930;SDS011;50111;48.114;-2.066;2022-08-03T14:03:10;2.00;;;1.45;;
63930;SDS011;50111;48.114;-2.066;2022-08-03T14:05:36;1.98;;;1.65;;
63930;SDS011;50111;48.114;-2.066;2022-08-03T14:08:03;3.55;;;1.60;;
63930;SDS011;50111;48.114;-2.066;2022-08-03T14:10:31;1.85;;;1.60;;
63930;SDS011;50111;48.114;-2.066;2022-08-03T14:12:57;2.67;;;1.45;;
63930;SDS011;50111;48.114;-2.066;2022-08-03T14:15:24;3.30;;;1.75;;
63930;SDS011;50111;48.114;-2.066;2022-08-03T14:17:50;2.28;;;1.70;;
63930;SDS011;50111;48.114;-2.066;2022-08-03T14:20:16;3.05;;;1.70;;
63930;SDS011;50111;48.114;-2.066;2022-08-03T14:22:42;3.22;;;1.90;;
63930;SDS011;50111;48.114;-2.066;2022-08-03T14:25:08;1.63;;;1.52;;
63930;SDS011;50111;48.114;-2.066;2022-08-03T14:27:34;5.03;;;1.83;;
63930;SDS011;50111;48.114;-2.066;2022-08-03T14:30:01;3.22;;;1.80;;
63930;SDS011;50111;48.114;-2.066;2022-08-03T14:32:27;2.90;;;2.00;;
63930;SDS011;50111;48.114;-2.066;2022-08-03T14:34:53;3.60;;;1.67;;
63930;SDS011;50111;48.114;-2.066;2022-08-03T14:37:19;6.88;;;1.67;;
63930;SDS011;50111;48.114;-2.066;2022-08-03T14:39:45;3.42;;;1.55;;
63930;SDS011;50111;48.114;-2.066;2022-08-03T14:42:11;4.18;;;1.80;;
63930;SDS011;50111;48.114;-2.066;2022-08-03T14:44:38;5.13;;;1.90;;
63930;SDS011;50111;48.114;-2.066;2022-08-03T14:47:04;3.92;;;1.77;;
63930;SDS011;50111;48.114;-2.066;2022-08-03T14:49:30;3.75;;;1.63;;
63930;SDS011;50111;48.114;-2.066;2022-08-03T14:51:56;5.90;;;1.60;;
63930;SDS011;50111;48.114;-2.066;2022-08-03T14:54:22;2.65;;;1.40;;
63930;SDS011;50111;48.114;-2.066;2022-08-03T14:56:48;3.28;;;1.63;;
63930;SDS011;50111;48.114;-2.066;2022-08-03T14:59:14;3.40;;;1.73;;
63930;SDS011;50111;48.114;-2.066;2022-08-03T15:01:40;4.53;;;1.40;;
63930;SDS011;50111;48.114;-2.066;2022-08-03T15:04:06;1.60;;;1.23;;
63930;SDS011;50111;48.114;-2.066;2022-08-03T15:06:32;4.07;;;1.63;;